createdAt,value
2022-08-07T00:00:43.374Z,29.40
2022-08-07T00:03:36.906Z,29.30
2022-08-07T00:06:33.074Z,29.20
2022-08-07T00:09:22.411Z,29.20
2022-08-07T00:12:09.215Z,29.10
2022-08-07T00:14:56.124Z,29.10
2022-08-07T00:17:42.493Z,29.10
2022-08-07T00:20:29.809Z,29.00
2022-08-07T00:23:21.161Z,29.00
2022-08-07T00:26:13.022Z,28.90
2022-08-07T00:29:06.054Z,28.80
2022-08-07T00:31:54.540Z,28.70
2022-08-07T00:34:41.022Z,28.70
2022-08-07T00:37:26.603Z,28.70
2022-08-07T00:40:15.666Z,28.60
2022-08-07T00:43:59.450Z,28.70
2022-08-07T00:46:27.389Z,28.70
2022-08-07T00:49:24.959Z,28.70
2022-08-07T00:52:20.413Z,28.70
2022-08-07T00:55:10.534Z,28.70
2022-08-07T00:57:56.659Z,28.70
2022-08-07T01:00:53.874Z,28.60
2022-08-07T01:03:55.298Z,28.60
2022-08-07T01:06:48.082Z,28.60
2022-08-07T01:09:51.138Z,28.50
2022-08-07T01:12:53.509Z,28.50
2022-08-07T01:16:01.042Z,28.60
2022-08-07T01:18:50.819Z,28.50
2022-08-07T01:21:37.623Z,28.40
2022-08-07T01:24:25.606Z,28.30
2022-08-07T01:27:19.981Z,28.20
2022-08-07T01:30:08.164Z,28.20
2022-08-07T01:32:57.374Z,28.20
2022-08-07T01:35:53.435Z,28.10
2022-08-07T01:38:45.503Z,28.00
2022-08-07T01:42:01.517Z,27.70
2022-08-07T01:44:48.929Z,28.00
2022-08-07T01:48:19.102Z,28.10
2022-08-07T01:50:45.855Z,28.00
2022-08-07T01:54:09.314Z,28.10
2022-08-07T01:57:03.946Z,28.10
2022-08-07T01:59:54.950Z,28.00
2022-08-07T02:03:11.918Z,28.10
2022-08-07T02:06:08.899Z,27.80
2022-08-07T02:09:33.916Z,27.70
2022-08-07T02:12:29.397Z,27.70
2022-08-07T02:15:26.441Z,27.80
2022-08-07T02:18:17.763Z,27.70
2022-08-07T02:21:07.219Z,27.70
2022-08-07T02:24:01.865Z,27.90
2022-08-07T02:26:50.709Z,27.90
2022-08-07T02:29:43.563Z,28.10
2022-08-07T02:33:08.985Z,28.00
2022-08-07T02:36:27.245Z,28.00
2022-08-07T02:38:57.789Z,28.00
2022-08-07T02:41:47.269Z,27.90
2022-08-07T02:44:47.775Z,27.90
2022-08-07T02:47:45.480Z,28.00
2022-08-07T02:50:42.939Z,28.00
2022-08-07T02:53:38.493Z,28.00
2022-08-07T02:56:31.439Z,27.80
2022-08-07T02:59:23.886Z,27.80
2022-08-07T03:02:16.091Z,27.70
2022-08-07T03:05:05.128Z,27.80
2022-08-07T03:08:07.321Z,27.90
2022-08-07T03:10:59.676Z,28.00
2022-08-07T03:13:57.536Z,28.00
2022-08-07T03:16:48.181Z,28.00
2022-08-07T03:19:37.127Z,28.00
2022-08-07T03:22:29.585Z,28.10
2022-08-07T03:25:20.951Z,28.10
2022-08-07T03:28:37.401Z,28.10
2022-08-07T03:31:24.607Z,27.80
2022-08-07T03:34:22.298Z,27.50
2022-08-07T03:37:13.326Z,27.30
2022-08-07T03:40:15.047Z,27.10
2022-08-07T03:43:03.369Z,27.10
2022-08-07T03:45:52.711Z,27.10
2022-08-07T03:48:45.613Z,27.30
2022-08-07T03:51:55.321Z,27.50
2022-08-07T03:54:54.896Z,27.30
2022-08-07T03:58:33.315Z,27.20
2022-08-07T04:00:59.686Z,27.20
2022-08-07T04:03:53.706Z,26.90
2022-08-07T04:06:44.241Z,27.00
2022-08-07T04:09:44.739Z,27.10
2022-08-07T04:12:35.188Z,27.10
2022-08-07T04:15:23.859Z,27.20
2022-08-07T04:18:57.866Z,27.20
2022-08-07T04:21:20.953Z,27.30
2022-08-07T04:24:33.712Z,27.30
2022-08-07T04:27:25.716Z,27.30
2022-08-07T04:30:21.329Z,27.30
2022-08-07T04:33:28.744Z,27.30
2022-08-07T04:36:16.064Z,27.30
2022-08-07T04:39:10.859Z,27.40
2022-08-07T04:41:56.751Z,27.50
2022-08-07T04:44:54.668Z,27.40
2022-08-07T04:48:10.615Z,27.40
2022-08-07T04:51:32.123Z,27.50
2022-08-07T04:54:50.715Z,27.50
2022-08-07T04:58:10.696Z,27.40
2022-08-07T05:01:18.292Z,27.50
2022-08-07T05:04:17.409Z,27.50
2022-08-07T05:07:19.576Z,27.60
2022-08-07T05:10:20.082Z,27.50
2022-08-07T05:14:53.755Z,27.60
2022-08-07T05:16:22.686Z,27.60
2022-08-07T05:19:16.927Z,27.60
2022-08-07T05:22:07.624Z,27.50
2022-08-07T05:24:59.860Z,27.40
2022-08-07T05:28:16.072Z,27.50
2022-08-07T05:30:56.933Z,27.40
2022-08-07T05:34:01.515Z,27.50
2022-08-07T05:36:56.600Z,27.40
2022-08-07T05:40:18.143Z,27.50
2022-08-07T05:43:06.540Z,27.50
2022-08-07T05:45:58.148Z,27.50
2022-08-07T05:48:58.092Z,27.50
2022-08-07T05:51:47.071Z,27.40
2022-08-07T05:54:53.253Z,27.50
2022-08-07T05:57:42.087Z,27.50
2022-08-07T06:00:34.014Z,27.60
2022-08-07T06:03:25.052Z,27.60
2022-08-07T06:06:33.747Z,27.70
2022-08-07T06:10:03.801Z,27.80
2022-08-07T06:12:32.967Z,27.70
2022-08-07T06:15:21.150Z,27.80
2022-08-07T06:18:08.049Z,27.80
2022-08-07T06:22:11.867Z,27.90
2022-08-07T06:24:52.715Z,28.00
2022-08-07T06:27:08.682Z,27.90
2022-08-07T06:29:57.006Z,28.00
2022-08-07T06:32:44.282Z,28.10
2022-08-07T06:35:45.670Z,28.10
2022-08-07T06:38:58.617Z,28.20
2022-08-07T06:42:02.566Z,28.20
2022-08-07T06:45:22.601Z,28.20
2022-08-07T06:48:14.569Z,28.20
2022-08-07T06:51:09.481Z,28.20
2022-08-07T06:55:29.920Z,28.20
2022-08-07T06:57:10.667Z,28.30
2022-08-07T07:00:13.863Z,28.30
2022-08-07T07:03:08.746Z,28.30
2022-08-07T07:06:02.959Z,28.20
2022-08-07T07:08:53.554Z,28.30
2022-08-07T07:12:09.095Z,28.30
2022-08-07T07:15:08.961Z,28.30
2022-08-07T07:18:15.066Z,28.30
2022-08-07T07:21:26.925Z,28.30
2022-08-07T07:24:13.230Z,28.40
2022-08-07T07:27:01.984Z,28.50
2022-08-07T07:30:09.315Z,28.50
2022-08-07T07:33:01.076Z,28.50
2022-08-07T07:36:04.078Z,28.40
2022-08-07T07:38:52.130Z,28.60
2022-08-07T07:41:50.851Z,28.70
2022-08-07T07:44:49.579Z,28.80
2022-08-07T07:47:52.090Z,28.80
2022-08-07T07:50:40.188Z,28.90
2022-08-07T07:53:27.283Z,28.90
2022-08-07T07:56:14.816Z,28.90
2022-08-07T07:59:05.914Z,29.00
2022-08-07T08:02:02.667Z,29.20
2022-08-07T08:04:52.400Z,29.20
2022-08-07T08:07:59.697Z,29.30
2022-08-07T08:10:47.876Z,29.40
2022-08-07T08:13:50.767Z,29.50
2022-08-07T08:16:49.414Z,29.50
2022-08-07T08:20:16.289Z,29.60
2022-08-07T08:23:08.445Z,29.40
2022-08-07T08:26:18.080Z,29.70
2022-08-07T08:29:05.422Z,29.70
2022-08-07T08:32:17.186Z,29.70
2022-08-07T08:35:00.231Z,29.80
2022-08-07T08:38:01.657Z,29.50
2022-08-07T08:40:57.052Z,29.60
2022-08-07T08:44:04.462Z,29.70
2022-08-07T08:47:01.897Z,29.60
2022-08-07T08:50:05.420Z,29.60
2022-08-07T08:53:03.448Z,29.90
2022-08-07T08:55:54.891Z,29.80
2022-08-07T08:59:08.698Z,29.70
2022-08-07T09:02:37.937Z,29.90
2022-08-07T09:05:41.575Z,30.00
2022-08-07T09:08:39.319Z,30.00
2022-08-07T09:11:55.434Z,30.10
2022-08-07T09:14:50.566Z,30.10
2022-08-07T09:17:59.606Z,29.80
2022-08-07T09:21:02.834Z,29.90
2022-08-07T09:24:30.452Z,29.80
2022-08-07T09:27:24.875Z,29.60
2022-08-07T09:30:17.284Z,29.80
2022-08-07T09:33:52.614Z,29.80
2022-08-07T09:36:46.638Z,30.00
2022-08-07T09:40:08.873Z,30.10
2022-08-07T09:43:08.305Z,29.90
2022-08-07T09:47:49.577Z,29.90
2022-08-07T09:50:01.082Z,29.70
2022-08-07T09:53:11.195Z,29.80
2022-08-07T09:56:33.828Z,29.70
2022-08-07T10:00:00.917Z,29.80
2022-08-07T10:04:03.193Z,29.90
2022-08-07T10:07:05.118Z,29.50
2022-08-07T10:10:30.117Z,29.50
2022-08-07T10:13:55.394Z,29.90
2022-08-07T10:16:50.703Z,30.10
2022-08-07T10:19:42.069Z,30.20
2022-08-07T10:22:54.420Z,29.80
2022-08-07T10:26:04.375Z,29.90
2022-08-07T10:29:18.405Z,29.70
2022-08-07T10:32:52.313Z,29.60
2022-08-07T10:35:55.306Z,29.50
2022-08-07T10:38:48.670Z,29.20
2022-08-07T10:41:46.473Z,29.30
2022-08-07T10:44:48.001Z,29.60
2022-08-07T10:48:21.454Z,29.60
2022-08-07T10:51:39.502Z,29.60
2022-08-07T10:54:55.173Z,29.70
2022-08-07T10:58:06.219Z,29.80
2022-08-07T11:01:01.964Z,29.80
2022-08-07T11:04:11.160Z,29.90
2022-08-07T11:07:58.981Z,30.00
2022-08-07T11:11:03.731Z,30.10
2022-08-07T11:14:45.668Z,30.20
2022-08-07T11:17:23.197Z,30.20
2022-08-07T11:20:35.594Z,30.30
2022-08-07T11:23:38.806Z,30.40
2022-08-07T11:26:38.626Z,30.50
2022-08-07T11:29:48.139Z,30.50
2022-08-07T11:32:45.898Z,30.50
2022-08-07T11:35:59.177Z,30.50
2022-08-07T11:39:25.948Z,30.70
2022-08-07T11:42:34.454Z,30.90
2022-08-07T11:45:49.772Z,31.10
2022-08-07T11:49:27.683Z,31.20
2022-08-07T11:52:37.778Z,31.50
2022-08-07T11:56:25.188Z,31.70
2022-08-07T11:59:00.717Z,32.10
2022-08-07T12:02:01.341Z,32.30
2022-08-07T12:05:04.119Z,32.50
2022-08-07T12:08:31.397Z,32.60
2022-08-07T12:12:09.709Z,32.80
2022-08-07T12:15:46.592Z,33.10
2022-08-07T12:18:45.398Z,33.30
2022-08-07T12:21:55.788Z,33.50
2022-08-07T12:26:03.466Z,33.80
2022-08-07T12:29:22.558Z,33.80
2022-08-07T12:33:00.562Z,34.10
2022-08-07T12:35:58.035Z,34.30
2022-08-07T12:38:57.743Z,34.60
2022-08-07T12:42:00.011Z,34.50
2022-08-07T12:45:05.608Z,34.70
2022-08-07T12:48:02.120Z,35.00
2022-08-07T12:51:12.980Z,34.80
2022-08-07T12:54:37.962Z,35.60
2022-08-07T12:57:39.187Z,35.80
2022-08-07T13:01:08.914Z,35.90
2022-08-07T13:04:34.010Z,36.10
2022-08-07T13:08:14.624Z,38.50
2022-08-07T13:12:01.886Z,38.90
2022-08-07T13:15:09.509Z,37.30
2022-08-07T13:18:38.705Z,36.70
2022-08-07T13:21:57.564Z,37.40
2022-08-07T13:25:24.295Z,39.80
2022-08-07T13:28:27.279Z,40.80
2022-08-07T13:31:55.018Z,42.20
2022-08-07T13:34:55.725Z,43.60
2022-08-07T13:38:00.919Z,45.20
2022-08-07T13:41:13.246Z,46.20
2022-08-07T13:44:05.121Z,46.90
2022-08-07T13:46:56.845Z,46.90
2022-08-07T13:50:33.176Z,46.60
2022-08-07T13:52:56.469Z,45.50
2022-08-07T13:55:46.919Z,46.50
2022-08-07T13:59:01.644Z,47.30
2022-08-07T14:02:04.149Z,47.90
2022-08-07T14:04:55.323Z,49.10
2022-08-07T14:08:00.264Z,48.10
2022-08-07T14:11:15.332Z,47.40
2022-08-07T14:14:08.122Z,47.10
2022-08-07T14:16:57.681Z,46.40
2022-08-07T14:20:40.993Z,45.40
2022-08-07T14:22:54.608Z,46.40
2022-08-07T14:25:46.149Z,48.00
2022-08-07T14:28:58.959Z,49.60
2022-08-07T14:31:57.730Z,50.70
2022-08-07T14:34:47.312Z,50.20
2022-08-07T14:37:39.297Z,48.90
2022-08-07T14:40:35.067Z,50.10
2022-08-07T14:43:58.582Z,51.30
2022-08-07T14:46:33.315Z,50.20
2022-08-07T14:49:57.168Z,47.50
2022-08-07T14:52:40.741Z,47.80
2022-08-07T14:55:34.071Z,48.30
2022-08-07T14:58:25.567Z,48.50
2022-08-07T15:04:26.188Z,51.20
2022-08-07T15:07:23.801Z,48.30
2022-08-07T15:10:30.673Z,46.90
2022-08-07T15:16:54.933Z,49.30
2022-08-07T15:20:33.185Z,49.50
2022-08-07T15:23:00.659Z,50.60
2022-08-07T15:26:06.002Z,51.00
2022-08-07T15:28:59.431Z,51.70
2022-08-07T15:32:06.386Z,52.50
2022-08-07T15:34:59.055Z,52.60
2022-08-07T15:38:04.583Z,52.30
2022-08-07T15:41:23.038Z,51.80
2022-08-07T15:44:10.430Z,51.20
2022-08-07T15:47:08.728Z,49.40
2022-08-07T15:53:17.480Z,51.60
2022-08-07T15:56:12.871Z,51.60
2022-08-07T15:59:05.689Z,51.10
2022-08-07T16:02:01.680Z,47.80
2022-08-07T16:04:49.940Z,46.70
2022-08-07T16:08:32.551Z,45.80
2022-08-07T16:11:44.997Z,45.50
2022-08-07T16:15:05.812Z,45.10
2022-08-07T16:18:03.861Z,46.30
2022-08-07T16:22:01.835Z,49.30
2022-08-07T16:24:34.799Z,50.30
2022-08-07T16:27:41.565Z,49.70
2022-08-07T16:30:34.689Z,49.40
2022-08-07T16:34:03.219Z,48.60
2022-08-07T16:38:07.336Z,46.70
2022-08-07T16:40:57.212Z,44.70
2022-08-07T16:44:04.127Z,43.70
2022-08-07T16:47:50.878Z,43.20
2022-08-07T16:51:20.523Z,42.60
2022-08-07T16:54:54.917Z,43.00
2022-08-07T16:58:04.007Z,42.20
2022-08-07T17:01:34.300Z,41.30
2022-08-07T17:04:37.007Z,40.40
2022-08-07T17:07:57.775Z,40.20
2022-08-07T17:10:54.370Z,39.70
2022-08-07T17:14:18.215Z,39.60
2022-08-07T17:17:01.279Z,40.00
2022-08-07T17:20:02.458Z,39.40
2022-08-07T17:23:16.821Z,39.20
2022-08-07T17:26:24.343Z,38.80
2022-08-07T17:30:18.220Z,38.70
2022-08-07T17:32:35.152Z,38.40
2022-08-07T17:35:50.916Z,38.20
2022-08-07T17:38:55.498Z,37.70
2022-08-07T17:42:07.014Z,37.60
2022-08-07T17:44:59.264Z,37.40
2022-08-07T17:47:58.318Z,37.20
2022-08-07T17:51:01.762Z,36.80
2022-08-07T17:54:53.501Z,36.70
2022-08-07T17:57:56.678Z,36.30
2022-08-07T18:00:52.582Z,35.70
2022-08-07T18:04:16.806Z,35.50
2022-08-07T18:07:20.565Z,36.30
2022-08-07T18:10:29.131Z,36.90
2022-08-07T18:13:49.203Z,37.00
2022-08-07T18:16:57.523Z,36.90
2022-08-07T18:21:07.526Z,37.00
2022-08-07T18:23:06.262Z,37.10
2022-08-07T18:26:16.458Z,35.80
2022-08-07T18:30:07.817Z,35.10
2022-08-07T18:32:48.203Z,34.70
2022-08-07T18:36:10.140Z,34.50
2022-08-07T18:40:07.040Z,34.30
2022-08-07T18:42:49.206Z,34.20
2022-08-07T18:46:25.669Z,33.90
2022-08-07T18:50:32.680Z,33.70
2022-08-07T18:53:04.601Z,33.70
2022-08-07T18:56:07.269Z,33.60
2022-08-07T18:59:07.647Z,33.50
2022-08-07T19:02:44.597Z,33.40
2022-08-07T19:06:03.482Z,33.30
2022-08-07T19:09:09.267Z,33.20
2022-08-07T19:12:48.808Z,33.00
2022-08-07T19:16:02.656Z,32.90
2022-08-07T19:19:19.075Z,32.90
2022-08-07T19:22:30.719Z,32.80
2022-08-07T19:26:23.199Z,32.60
2022-08-07T19:30:54.223Z,32.60
2022-08-07T19:32:09.685Z,32.60
2022-08-07T19:35:02.744Z,32.50
2022-08-07T19:37:56.955Z,32.50
2022-08-07T19:40:50.530Z,32.50
2022-08-07T19:43:50.332Z,32.40
2022-08-07T19:46:55.278Z,32.30
2022-08-07T19:49:57.209Z,32.30
2022-08-07T19:52:58.631Z,32.20
2022-08-07T19:55:58.045Z,32.10
2022-08-07T19:58:53.199Z,32.10
2022-08-07T20:01:55.900Z,31.90
2022-08-07T20:04:49.006Z,31.90
2022-08-07T20:07:46.536Z,31.80
2022-08-07T20:10:54.180Z,31.80
2022-08-07T20:13:46.390Z,31.80
2022-08-07T20:16:36.830Z,31.80
2022-08-07T20:19:47.652Z,31.70
2022-08-07T20:22:41.303Z,31.60
2022-08-07T20:25:29.435Z,31.50
2022-08-07T20:28:17.674Z,31.30
2022-08-07T20:31:20.991Z,31.20
2022-08-07T20:34:09.814Z,31.10
2022-08-07T20:36:58.230Z,30.90
2022-08-07T20:40:02.080Z,30.40
2022-08-07T20:42:56.688Z,30.50
2022-08-07T20:46:28.292Z,30.50
2022-08-07T20:49:54.119Z,30.40
2022-08-07T20:52:00.133Z,30.40
2022-08-07T20:54:53.807Z,30.60
2022-08-07T20:58:02.896Z,30.50
2022-08-07T21:01:01.097Z,30.40
2022-08-07T21:04:07.564Z,30.40
2022-08-07T21:07:04.317Z,30.40
2022-08-07T21:10:03.224Z,30.40
2022-08-07T21:12:54.882Z,30.40
2022-08-07T21:15:58.224Z,30.20
2022-08-07T21:18:50.405Z,30.10
2022-08-07T21:21:49.276Z,29.80
2022-08-07T21:25:20.747Z,29.90
2022-08-07T21:28:48.052Z,29.90
2022-08-07T21:32:10.882Z,29.80
2022-08-07T21:35:08.080Z,29.90
2022-08-07T21:38:35.478Z,29.90
2022-08-07T21:41:38.403Z,29.90
2022-08-07T21:44:51.088Z,29.70
2022-08-07T21:47:50.492Z,29.60
2022-08-07T21:50:45.496Z,29.60
2022-08-07T21:53:46.175Z,29.60
2022-08-07T21:56:47.930Z,29.50
2022-08-07T22:00:04.855Z,29.30
2022-08-07T22:03:08.564Z,29.10
2022-08-07T22:06:30.285Z,29.00
2022-08-07T22:09:25.260Z,28.90
2022-08-07T22:12:24.709Z,28.80
2022-08-07T22:16:39.896Z,28.70
2022-08-07T22:19:07.419Z,28.50
2022-08-07T22:22:20.858Z,28.40
2022-08-07T22:25:20.439Z,28.30
2022-08-07T22:28:32.071Z,28.10
2022-08-07T22:31:55.987Z,28.10
2022-08-07T22:35:07.840Z,28.10
2022-08-07T22:38:10.788Z,28.00
2022-08-07T22:41:13.170Z,27.90
2022-08-07T22:44:08.039Z,27.60
2022-08-07T22:50:52.457Z,27.60
2022-08-07T22:54:06.775Z,27.30
2022-08-07T22:57:37.418Z,27.20
2022-08-07T23:00:58.135Z,27.20
2022-08-07T23:04:29.980Z,27.20
2022-08-07T23:07:42.080Z,27.10
2022-08-07T23:10:44.452Z,27.00
2022-08-07T23:13:49.229Z,26.90
2022-08-07T23:17:15.734Z,27.00
2022-08-07T23:20:40.439Z,27.20
2022-08-07T23:24:04.251Z,27.30
2022-08-07T23:27:34.122Z,27.10
2022-08-07T23:30:37.498Z,27.10
2022-08-07T23:34:34.805Z,27.00
2022-08-07T23:37:22.504Z,26.90
2022-08-07T23:40:30.935Z,26.90
2022-08-07T23:43:46.758Z,26.90
2022-08-07T23:46:49.970Z,27.00
2022-08-07T23:49:50.310Z,27.00
2022-08-07T23:53:19.319Z,26.90
2022-08-07T23:56:31.164Z,26.80
